createdAt,value
2023-06-25T00:00:48.184Z,95458.00
2023-06-25T00:01:48.264Z,95458.00
2023-06-25T00:02:48.183Z,95450.00
2023-06-25T00:03:48.159Z,95448.00
2023-06-25T00:04:48.146Z,95450.00
2023-06-25T00:05:48.155Z,95448.00
2023-06-25T00:06:48.195Z,95450.00
2023-06-25T00:07:48.167Z,95448.00
2023-06-25T00:08:48.153Z,95448.00
2023-06-25T00:09:48.134Z,95448.00
2023-06-25T00:10:48.142Z,95452.00
2023-06-25T00:11:48.158Z,95452.00
2023-06-25T00:12:48.119Z,95450.00
2023-06-25T00:13:48.122Z,95452.00
2023-06-25T00:14:48.182Z,95452.00
2023-06-25T00:15:48.174Z,95450.00
2023-06-25T00:16:48.121Z,95454.00
2023-06-25T00:17:48.170Z,95452.00
2023-06-25T00:18:48.146Z,95454.00
2023-06-25T00:19:48.156Z,95456.00
2023-06-25T00:20:48.157Z,95456.00
2023-06-25T00:21:48.141Z,95454.00
2023-06-25T00:23:05.281Z,95450.00
2023-06-25T00:23:49.118Z,95448.00
2023-06-25T00:24:48.110Z,95448.00
2023-06-25T00:25:48.095Z,95450.00
2023-06-25T00:26:48.140Z,95448.00
2023-06-25T00:27:48.079Z,95448.00
2023-06-25T00:28:48.079Z,95450.00
2023-06-25T00:29:48.108Z,95448.00
2023-06-25T00:30:48.091Z,95444.00
2023-06-25T00:31:48.092Z,95444.00
2023-06-25T00:32:48.110Z,95442.00
2023-06-25T00:33:48.051Z,95448.00
2023-06-25T00:34:48.043Z,95444.00
2023-06-25T00:35:48.056Z,95444.00
2023-06-25T00:36:48.036Z,95444.00
2023-06-25T00:37:48.048Z,95444.00
2023-06-25T00:38:48.013Z,95446.00
2023-06-25T00:39:48.026Z,95446.00
2023-06-25T00:40:48.030Z,95446.00
2023-06-25T00:41:48.046Z,95446.00
2023-06-25T00:42:48.002Z,95446.00
2023-06-25T00:43:47.997Z,95444.00
2023-06-25T00:44:47.993Z,95444.00
2023-06-25T00:45:47.973Z,95444.00
2023-06-25T00:46:47.978Z,95438.00
2023-06-25T00:47:48.013Z,95444.00
2023-06-25T00:48:48.055Z,95440.00
2023-06-25T00:49:47.960Z,95440.00
2023-06-25T00:50:47.962Z,95442.00
2023-06-25T00:51:47.940Z,95444.00
2023-06-25T00:52:47.982Z,95442.00
2023-06-25T00:53:47.938Z,95440.00
2023-06-25T00:54:47.894Z,95438.00
2023-06-25T00:55:47.929Z,95438.00
2023-06-25T00:56:47.879Z,95438.00
2023-06-25T00:57:47.900Z,95436.00
2023-06-25T00:58:47.915Z,95436.00
2023-06-25T00:59:47.929Z,95434.00
2023-06-25T01:00:47.901Z,95436.00
2023-06-25T01:01:47.831Z,95436.00
2023-06-25T01:02:48.049Z,95434.00
2023-06-25T01:03:47.900Z,95434.00
2023-06-25T01:04:47.822Z,95434.00
2023-06-25T01:05:47.847Z,95434.00
2023-06-25T01:06:47.915Z,95434.00
2023-06-25T01:07:47.811Z,95432.00
2023-06-25T01:08:47.920Z,95434.00
2023-06-25T01:09:47.780Z,95432.00
2023-06-25T01:10:47.805Z,95432.00
2023-06-25T01:11:47.785Z,95430.00
2023-06-25T01:12:47.796Z,95434.00
2023-06-25T01:13:47.785Z,95430.00
2023-06-25T01:14:47.757Z,95432.00
2023-06-25T01:15:47.756Z,95430.00
2023-06-25T01:16:47.779Z,95430.00
2023-06-25T01:17:47.790Z,95430.00
2023-06-25T01:18:58.950Z,95430.00
2023-06-25T01:19:48.773Z,95430.00
2023-06-25T01:20:47.745Z,95428.00
2023-06-25T01:21:47.766Z,95426.00
2023-06-25T01:22:47.772Z,95426.00
2023-06-25T01:23:47.736Z,95424.00
2023-06-25T01:24:47.722Z,95424.00
2023-06-25T01:25:47.723Z,95424.00
2023-06-25T01:26:47.692Z,95424.00
2023-06-25T01:27:47.691Z,95424.00
2023-06-25T01:28:47.707Z,95422.00
2023-06-25T01:29:47.709Z,95422.00
2023-06-25T01:30:47.678Z,95420.00
2023-06-25T01:31:47.711Z,95420.00
2023-06-25T01:32:47.735Z,95424.00
2023-06-25T01:33:47.673Z,95420.00
2023-06-25T01:34:47.673Z,95418.00
2023-06-25T01:35:47.656Z,95420.00
2023-06-25T01:36:47.658Z,95422.00
2023-06-25T01:37:47.613Z,95418.00
2023-06-25T01:38:47.626Z,95418.00
2023-06-25T01:39:47.635Z,95417.00
2023-06-25T01:40:47.628Z,95420.00
2023-06-25T01:41:47.603Z,95415.00
2023-06-25T01:42:47.602Z,95415.00
2023-06-25T01:43:47.600Z,95417.00
2023-06-25T01:44:47.640Z,95417.00
2023-06-25T01:45:47.609Z,95417.00
2023-06-25T01:46:47.557Z,95415.00
2023-06-25T01:47:47.636Z,95415.00
2023-06-25T01:48:47.547Z,95417.00
2023-06-25T01:49:47.536Z,95415.00
2023-06-25T01:50:47.547Z,95411.00
2023-06-25T01:51:47.513Z,95409.00
2023-06-25T01:52:47.542Z,95409.00
2023-06-25T01:53:47.507Z,95405.00
2023-06-25T01:54:47.534Z,95405.00
2023-06-25T01:55:47.514Z,95405.00
2023-06-25T01:56:47.532Z,95405.00
2023-06-25T01:57:47.539Z,95403.00
2023-06-25T01:58:47.503Z,95403.00
2023-06-25T01:59:47.474Z,95395.00
2023-06-25T02:00:47.459Z,95395.00
2023-06-25T02:01:47.553Z,95403.00
2023-06-25T02:02:47.597Z,95395.00
2023-06-25T02:03:47.533Z,95395.00
2023-06-25T02:04:47.443Z,95395.00
2023-06-25T02:05:47.429Z,95395.00
2023-06-25T02:06:47.445Z,95393.00
2023-06-25T02:07:47.437Z,95393.00
2023-06-25T02:08:47.399Z,95393.00
2023-06-25T02:09:47.409Z,95395.00
2023-06-25T02:10:47.420Z,95395.00
2023-06-25T02:11:47.397Z,95395.00
2023-06-25T02:12:47.389Z,95393.00
2023-06-25T02:13:47.399Z,95391.00
2023-06-25T02:14:47.375Z,95391.00
2023-06-25T02:15:47.400Z,95391.00
2023-06-25T02:16:47.357Z,95395.00
2023-06-25T02:17:47.405Z,95391.00
2023-06-25T02:18:47.324Z,95389.00
2023-06-25T02:19:47.347Z,95387.00
2023-06-25T02:20:47.344Z,95387.00
2023-06-25T02:21:47.351Z,95385.00
2023-06-25T02:22:47.325Z,95385.00
2023-06-25T02:23:47.300Z,95383.00
2023-06-25T02:24:47.338Z,95383.00
2023-06-25T02:25:47.319Z,95385.00
2023-06-25T02:26:47.280Z,95383.00
2023-06-25T02:27:47.299Z,95385.00
2023-06-25T02:28:47.265Z,95381.00
2023-06-25T02:29:47.301Z,95381.00
2023-06-25T02:30:47.316Z,95379.00
2023-06-25T02:31:47.342Z,95385.00
2023-06-25T02:32:47.304Z,95383.00
2023-06-25T02:33:47.277Z,95377.00
2023-06-25T02:34:47.286Z,95379.00
2023-06-25T02:35:47.346Z,95379.00
2023-06-25T02:36:47.297Z,95381.00
2023-06-25T02:37:47.302Z,95381.00
2023-06-25T02:38:47.308Z,95381.00
2023-06-25T02:39:47.313Z,95381.00
2023-06-25T02:40:47.317Z,95381.00
2023-06-25T02:41:47.318Z,95381.00
2023-06-25T02:42:47.340Z,95381.00
2023-06-25T02:43:47.322Z,95383.00
2023-06-25T02:44:47.305Z,95383.00
2023-06-25T02:45:47.353Z,95381.00
2023-06-25T02:46:47.379Z,95383.00
2023-06-25T02:47:47.370Z,95381.00
2023-06-25T02:48:47.343Z,95381.00
2023-06-25T02:49:47.333Z,95383.00
2023-06-25T02:50:47.366Z,95381.00
2023-06-25T02:51:47.353Z,95383.00
2023-06-25T02:52:47.361Z,95383.00
2023-06-25T02:53:47.380Z,95381.00
2023-06-25T02:54:47.371Z,95381.00
2023-06-25T02:55:47.386Z,95377.00
2023-06-25T02:56:47.374Z,95377.00
2023-06-25T02:57:47.412Z,95379.00
2023-06-25T02:58:47.407Z,95373.00
2023-06-25T02:59:47.395Z,95373.00
2023-06-25T03:00:47.469Z,95373.00
2023-06-25T03:01:47.403Z,95375.00
2023-06-25T03:02:47.525Z,95375.00
2023-06-25T03:03:47.437Z,95375.00
2023-06-25T03:04:47.414Z,95375.00
2023-06-25T03:05:47.505Z,95373.00
2023-06-25T03:06:47.504Z,95375.00
2023-06-25T03:07:47.443Z,95375.00
2023-06-25T03:08:47.458Z,95373.00
2023-06-25T03:09:47.439Z,95375.00
2023-06-25T03:10:47.439Z,95375.00
2023-06-25T03:11:47.454Z,95375.00
2023-06-25T03:12:47.462Z,95375.00
2023-06-25T03:13:47.511Z,95375.00
2023-06-25T03:14:47.490Z,95375.00
2023-06-25T03:15:47.490Z,95375.00
2023-06-25T03:16:47.464Z,95375.00
2023-06-25T03:17:47.544Z,95375.00
2023-06-25T03:18:47.484Z,95377.00
2023-06-25T03:19:47.489Z,95377.00
2023-06-25T03:20:47.486Z,95377.00
2023-06-25T03:21:47.577Z,95373.00
2023-06-25T03:22:47.520Z,95373.00
2023-06-25T03:23:47.525Z,95373.00
2023-06-25T03:24:47.516Z,95377.00
2023-06-25T03:25:47.520Z,95377.00
2023-06-25T03:26:47.541Z,95377.00
2023-06-25T03:27:47.543Z,95381.00
2023-06-25T03:28:47.539Z,95379.00
2023-06-25T03:29:47.545Z,95377.00
2023-06-25T03:30:47.648Z,95377.00
2023-06-25T03:31:47.556Z,95375.00
2023-06-25T03:32:47.583Z,95377.00
2023-06-25T03:33:47.575Z,95377.00
2023-06-25T03:34:47.596Z,95379.00
2023-06-25T03:35:47.691Z,95377.00
2023-06-25T03:36:47.583Z,95377.00
2023-06-25T03:37:47.601Z,95375.00
2023-06-25T03:38:47.636Z,95377.00
2023-06-25T03:39:47.632Z,95377.00
2023-06-25T03:40:47.705Z,95377.00
2023-06-25T03:41:47.665Z,95377.00
2023-06-25T03:42:47.665Z,95379.00
2023-06-25T03:43:47.670Z,95375.00
2023-06-25T03:44:47.665Z,95377.00
2023-06-25T03:45:47.700Z,95377.00
2023-06-25T03:46:47.700Z,95381.00
2023-06-25T03:47:47.860Z,95379.00
2023-06-25T03:48:47.788Z,95383.00
2023-06-25T03:49:47.711Z,95383.00
2023-06-25T03:50:47.728Z,95381.00
2023-06-25T03:51:47.728Z,95383.00
2023-06-25T03:52:47.790Z,95383.00
2023-06-25T03:53:47.757Z,95381.00
2023-06-25T03:54:47.753Z,95381.00
2023-06-25T03:55:47.737Z,95381.00
2023-06-25T03:56:47.869Z,95379.00
2023-06-25T03:57:47.873Z,95379.00
2023-06-25T03:58:47.771Z,95377.00
2023-06-25T03:59:47.867Z,95377.00
2023-06-25T04:00:47.790Z,95377.00
2023-06-25T04:01:47.923Z,95377.00
2023-06-25T04:02:47.835Z,95377.00
2023-06-25T04:03:47.858Z,95377.00
2023-06-25T04:04:47.838Z,95377.00
2023-06-25T04:05:47.892Z,95377.00
2023-06-25T04:06:47.915Z,95377.00
2023-06-25T04:07:47.844Z,95377.00
2023-06-25T04:08:47.902Z,95377.00
2023-06-25T04:09:47.892Z,95373.00
2023-06-25T04:10:47.913Z,95373.00
2023-06-25T04:11:48.047Z,95373.00
2023-06-25T04:12:47.930Z,95375.00
2023-06-25T04:13:47.911Z,95375.00
2023-06-25T04:14:47.899Z,95375.00
2023-06-25T04:15:47.951Z,95377.00
2023-06-25T04:16:47.911Z,95375.00
2023-06-25T04:17:48.145Z,95375.00
2023-06-25T04:18:48.001Z,95373.00
2023-06-25T04:19:47.933Z,95373.00
2023-06-25T04:20:47.966Z,95373.00
2023-06-25T04:21:48.017Z,95373.00
2023-06-25T04:22:48.010Z,95373.00
2023-06-25T04:23:48.025Z,95373.00
2023-06-25T04:24:48.024Z,95375.00
2023-06-25T04:25:48.079Z,95373.00
2023-06-25T04:26:47.981Z,95373.00
2023-06-25T04:27:48.093Z,95373.00
2023-06-25T04:28:47.995Z,95371.00
2023-06-25T04:29:48.067Z,95371.00
2023-06-25T04:30:48.075Z,95373.00
2023-06-25T04:31:48.134Z,95371.00
2023-06-25T04:32:48.212Z,95371.00
2023-06-25T04:33:48.188Z,95369.00
2023-06-25T04:34:48.037Z,95373.00
2023-06-25T04:35:48.099Z,95369.00
2023-06-25T04:36:48.055Z,95369.00
2023-06-25T04:37:48.131Z,95373.00
2023-06-25T04:38:48.128Z,95369.00
2023-06-25T04:39:48.126Z,95367.00
2023-06-25T04:40:48.149Z,95367.00
2023-06-25T04:41:48.148Z,95365.00
2023-06-25T04:42:48.160Z,95364.00
2023-06-25T04:43:48.191Z,95365.00
2023-06-25T04:44:48.147Z,95362.00
2023-06-25T04:45:48.201Z,95364.00
2023-06-25T04:46:48.205Z,95362.00
2023-06-25T04:47:48.255Z,95364.00
2023-06-25T04:48:48.203Z,95364.00
2023-06-25T04:49:48.219Z,95364.00
2023-06-25T04:50:48.213Z,95360.00
2023-06-25T04:51:48.214Z,95362.00
2023-06-25T04:52:48.266Z,95362.00
2023-06-25T04:53:48.278Z,95362.00
2023-06-25T04:54:48.284Z,95362.00
2023-06-25T04:55:48.271Z,95362.00
2023-06-25T04:56:48.288Z,95360.00
2023-06-25T04:57:48.378Z,95360.00
2023-06-25T04:58:48.330Z,95360.00
2023-06-25T04:59:48.339Z,95360.00
2023-06-25T05:00:48.381Z,95362.00
2023-06-25T05:01:48.373Z,95360.00
2023-06-25T05:02:48.442Z,95364.00
2023-06-25T05:03:48.461Z,95360.00
2023-06-25T05:04:48.436Z,95362.00
2023-06-25T05:05:48.443Z,95362.00
2023-06-25T05:06:48.526Z,95362.00
2023-06-25T05:07:48.468Z,95364.00
2023-06-25T05:08:48.475Z,95364.00
2023-06-25T05:09:48.501Z,95365.00
2023-06-25T05:10:48.507Z,95365.00
2023-06-25T05:11:48.552Z,95365.00
2023-06-25T05:12:48.534Z,95365.00
2023-06-25T05:13:48.533Z,95365.00
2023-06-25T05:14:48.570Z,95365.00
2023-06-25T05:15:48.553Z,95365.00
2023-06-25T05:16:48.584Z,95367.00
2023-06-25T05:17:48.616Z,95369.00
2023-06-25T05:18:49.145Z,95369.00
2023-06-25T05:19:48.625Z,95367.00
2023-06-25T05:20:48.642Z,95365.00
2023-06-25T05:21:48.669Z,95362.00
2023-06-25T05:22:48.652Z,95367.00
2023-06-25T05:23:48.672Z,95364.00
2023-06-25T05:24:48.691Z,95367.00
2023-06-25T05:25:48.673Z,95367.00
2023-06-25T05:26:48.701Z,95367.00
2023-06-25T05:27:48.734Z,95367.00
2023-06-25T05:28:48.769Z,95369.00
2023-06-25T05:29:48.780Z,95367.00
2023-06-25T05:30:48.761Z,95369.00
2023-06-25T05:31:48.792Z,95369.00
2023-06-25T05:32:48.887Z,95371.00
2023-06-25T05:33:48.807Z,95367.00
2023-06-25T05:34:48.834Z,95371.00
2023-06-25T05:35:48.823Z,95369.00
2023-06-25T05:36:48.876Z,95367.00
2023-06-25T05:37:48.873Z,95367.00
2023-06-25T05:38:51.370Z,95367.00
2023-06-25T05:39:48.920Z,95365.00
2023-06-25T05:40:48.860Z,95364.00
2023-06-25T05:41:48.832Z,95362.00
2023-06-25T05:42:48.869Z,95360.00
2023-06-25T05:43:48.812Z,95358.00
2023-06-25T05:44:48.852Z,95356.00
2023-06-25T05:45:48.825Z,95354.00
2023-06-25T05:46:48.926Z,95354.00
2023-06-25T05:47:48.957Z,95352.00
2023-06-25T05:48:48.773Z,95352.00
2023-06-25T05:49:48.817Z,95352.00
2023-06-25T05:50:48.770Z,95352.00
2023-06-25T05:51:48.779Z,95348.00
2023-06-25T05:52:48.774Z,95350.00
2023-06-25T05:53:48.758Z,95350.00
2023-06-25T05:54:48.758Z,95350.00
2023-06-25T05:55:48.775Z,95352.00
2023-06-25T05:56:48.777Z,95350.00
2023-06-25T05:57:48.740Z,95352.00
2023-06-25T05:58:48.729Z,95350.00
2023-06-25T05:59:48.711Z,95350.00
2023-06-25T06:00:48.702Z,95350.00
2023-06-25T06:01:48.730Z,95350.00
2023-06-25T06:02:48.753Z,95350.00
2023-06-25T06:03:48.747Z,95350.00
2023-06-25T06:04:48.652Z,95350.00
2023-06-25T06:05:48.685Z,95348.00
2023-06-25T06:06:48.726Z,95348.00
2023-06-25T06:07:48.673Z,95344.00
2023-06-25T06:08:48.641Z,95346.00
2023-06-25T06:09:48.651Z,95344.00
2023-06-25T06:10:48.702Z,95342.00
2023-06-25T06:11:48.668Z,95340.00
2023-06-25T06:12:48.756Z,95338.00
2023-06-25T06:13:48.625Z,95336.00
2023-06-25T06:14:48.614Z,95336.00
2023-06-25T06:15:48.598Z,95332.00
2023-06-25T06:16:48.620Z,95334.00
2023-06-25T06:17:48.656Z,95330.00
2023-06-25T06:18:48.598Z,95330.00
2023-06-25T06:19:48.569Z,95328.00
2023-06-25T06:20:48.603Z,95326.00
2023-06-25T06:21:48.563Z,95324.00
2023-06-25T06:22:48.578Z,95326.00
2023-06-25T06:23:48.676Z,95322.00
2023-06-25T06:24:48.589Z,95320.00
2023-06-25T06:25:48.559Z,95318.00
2023-06-25T06:26:48.529Z,95318.00
2023-06-25T06:27:48.537Z,95316.00
2023-06-25T06:28:48.571Z,95314.00
2023-06-25T06:29:48.516Z,95316.00
2023-06-25T06:30:48.552Z,95316.00
2023-06-25T06:31:48.504Z,95318.00
2023-06-25T06:32:48.586Z,95314.00
2023-06-25T06:33:48.524Z,95313.00
2023-06-25T06:34:48.507Z,95313.00
2023-06-25T06:35:48.460Z,95311.00
2023-06-25T06:36:48.505Z,95309.00
2023-06-25T06:37:48.489Z,95307.00
2023-06-25T06:38:48.474Z,95307.00
2023-06-25T06:39:48.472Z,95305.00
2023-06-25T06:40:48.473Z,95303.00
2023-06-25T06:41:48.457Z,95303.00
2023-06-25T06:42:48.454Z,95303.00
2023-06-25T06:43:48.460Z,95303.00
2023-06-25T06:44:48.433Z,95301.00
2023-06-25T06:45:48.403Z,95305.00
2023-06-25T06:46:48.426Z,95299.00
2023-06-25T06:47:48.505Z,95299.00
2023-06-25T06:48:48.384Z,95297.00
2023-06-25T06:49:48.396Z,95295.00
2023-06-25T06:50:48.369Z,95295.00
2023-06-25T06:51:48.417Z,95295.00
2023-06-25T06:52:48.432Z,95293.00
2023-06-25T06:53:48.376Z,95291.00
2023-06-25T06:54:48.327Z,95291.00
2023-06-25T06:55:48.346Z,95289.00
2023-06-25T06:56:48.316Z,95287.00
2023-06-25T06:57:48.366Z,95291.00
2023-06-25T06:58:48.318Z,95287.00
2023-06-25T06:59:48.333Z,95285.00
2023-06-25T07:00:48.303Z,95287.00
2023-06-25T07:01:48.425Z,95281.00
2023-06-25T07:02:48.371Z,95281.00
2023-06-25T07:03:48.305Z,95279.00
2023-06-25T07:04:48.295Z,95279.00
2023-06-25T07:05:48.299Z,95277.00
2023-06-25T07:06:48.303Z,95279.00
2023-06-25T07:07:48.268Z,95277.00
2023-06-25T07:08:48.260Z,95273.00
2023-06-25T07:09:48.220Z,95270.00
2023-06-25T07:10:48.261Z,95268.00
2023-06-25T07:11:48.238Z,95268.00
2023-06-25T07:12:48.247Z,95266.00
2023-06-25T07:13:48.264Z,95262.00
2023-06-25T07:14:48.262Z,95264.00
2023-06-25T07:15:48.298Z,95264.00
2023-06-25T07:16:48.325Z,95262.00
2023-06-25T07:17:48.368Z,95264.00
2023-06-25T07:18:48.343Z,95260.00
2023-06-25T07:19:48.355Z,95264.00
2023-06-25T07:20:48.367Z,95262.00
2023-06-25T07:21:48.418Z,95262.00
2023-06-25T07:22:48.422Z,95260.00
2023-06-25T07:23:48.420Z,95258.00
2023-06-25T07:24:48.473Z,95258.00
2023-06-25T07:25:48.461Z,95258.00
2023-06-25T07:26:48.488Z,95256.00
2023-06-25T07:27:48.555Z,95256.00
2023-06-25T07:28:48.524Z,95254.00
2023-06-25T07:29:48.572Z,95252.00
2023-06-25T07:30:48.576Z,95252.00
2023-06-25T07:31:48.576Z,95250.00
2023-06-25T07:32:48.610Z,95248.00
2023-06-25T07:33:48.592Z,95248.00
2023-06-25T07:34:48.613Z,95246.00
2023-06-25T07:35:48.645Z,95242.00
2023-06-25T07:36:48.664Z,95238.00
2023-06-25T07:37:48.691Z,95236.00
2023-06-25T07:38:48.661Z,95236.00
2023-06-25T07:39:48.753Z,95230.00
2023-06-25T07:40:48.749Z,95232.00
2023-06-25T07:41:48.746Z,95228.00
2023-06-25T07:42:48.797Z,95228.00
2023-06-25T07:43:48.822Z,95228.00
2023-06-25T07:44:56.375Z,95226.00
2023-06-25T07:45:49.812Z,95224.00
2023-06-25T07:46:48.778Z,95222.00
2023-06-25T07:47:48.842Z,95218.00
2023-06-25T07:48:48.778Z,95218.00
2023-06-25T07:49:48.780Z,95215.00
2023-06-25T07:50:48.743Z,95213.00
2023-06-25T07:51:48.788Z,95211.00
2023-06-25T07:52:48.734Z,95209.00
2023-06-25T07:53:48.718Z,95207.00
2023-06-25T07:54:48.737Z,95203.00
2023-06-25T07:56:00.361Z,95203.00
2023-06-25T07:56:49.709Z,95201.00
2023-06-25T07:57:48.702Z,95199.00
2023-06-25T07:58:48.692Z,95199.00
2023-06-25T07:59:53.729Z,95201.00
2023-06-25T08:00:49.704Z,95197.00
2023-06-25T08:01:48.671Z,95197.00
2023-06-25T08:02:48.874Z,95195.00
2023-06-25T08:03:48.943Z,95195.00
2023-06-25T08:04:48.848Z,95195.00
2023-06-25T08:05:48.649Z,95191.00
2023-06-25T08:06:48.659Z,95189.00
2023-06-25T08:07:48.642Z,95189.00
2023-06-25T08:08:48.629Z,95185.00
2023-06-25T08:09:48.605Z,95183.00
2023-06-25T08:10:48.642Z,95185.00
2023-06-25T08:11:48.582Z,95183.00
2023-06-25T08:12:48.582Z,95181.00
2023-06-25T08:13:48.605Z,95181.00
2023-06-25T08:14:48.602Z,95179.00
2023-06-25T08:15:48.571Z,95179.00
2023-06-25T08:16:48.580Z,95177.00
2023-06-25T08:17:48.595Z,95179.00
2023-06-25T08:18:48.561Z,95175.00
2023-06-25T08:19:48.554Z,95177.00
2023-06-25T08:20:48.528Z,95175.00
2023-06-25T08:21:48.564Z,95175.00
2023-06-25T08:22:48.517Z,95175.00
2023-06-25T08:23:48.530Z,95175.00
2023-06-25T08:24:48.536Z,95175.00
2023-06-25T08:25:48.511Z,95175.00
2023-06-25T08:26:48.478Z,95175.00
2023-06-25T08:27:48.499Z,95175.00
2023-06-25T08:28:48.518Z,95173.00
2023-06-25T08:29:48.494Z,95173.00
2023-06-25T08:30:48.554Z,95171.00
2023-06-25T08:31:48.536Z,95171.00
2023-06-25T08:32:48.574Z,95169.00
2023-06-25T08:33:48.520Z,95171.00
2023-06-25T08:34:48.540Z,95171.00
2023-06-25T08:35:48.551Z,95169.00
2023-06-25T08:36:48.552Z,95168.00
2023-06-25T08:37:48.553Z,95169.00
2023-06-25T08:38:48.558Z,95169.00
2023-06-25T08:39:48.577Z,95168.00
2023-06-25T08:40:48.589Z,95168.00
2023-06-25T08:41:48.590Z,95168.00
2023-06-25T08:42:50.674Z,95164.00
2023-06-25T08:43:48.720Z,95162.00
2023-06-25T08:44:48.614Z,95162.00
2023-06-25T08:45:48.637Z,95158.00
2023-06-25T08:46:48.669Z,95162.00
2023-06-25T08:47:48.635Z,95160.00
2023-06-25T08:48:48.588Z,95156.00
2023-06-25T08:49:48.565Z,95160.00
2023-06-25T08:50:48.551Z,95158.00
2023-06-25T08:51:48.556Z,95158.00
2023-06-25T08:52:48.566Z,95158.00
2023-06-25T08:53:48.544Z,95156.00
2023-06-25T08:54:48.507Z,95156.00
2023-06-25T08:55:48.533Z,95152.00
2023-06-25T08:56:48.517Z,95154.00
2023-06-25T08:57:48.510Z,95152.00
2023-06-25T08:58:48.486Z,95150.00
2023-06-25T08:59:48.490Z,95148.00
2023-06-25T09:00:48.534Z,95150.00
2023-06-25T09:01:48.522Z,95148.00
2023-06-25T09:02:48.584Z,95150.00
2023-06-25T09:03:48.510Z,95150.00
2023-06-25T09:04:48.459Z,95146.00
2023-06-25T09:05:48.442Z,95148.00
2023-06-25T09:07:03.184Z,95146.00
2023-06-25T09:07:49.494Z,95148.00
2023-06-25T09:08:48.421Z,95148.00
2023-06-25T09:09:48.426Z,95146.00
2023-06-25T09:10:48.438Z,95138.00
2023-06-25T09:11:48.397Z,95138.00
2023-06-25T09:12:48.411Z,95138.00
2023-06-25T09:13:48.398Z,95136.00
2023-06-25T09:14:48.405Z,95134.00
2023-06-25T09:15:48.421Z,95132.00
2023-06-25T09:16:48.397Z,95132.00
2023-06-25T09:17:48.476Z,95128.00
2023-06-25T09:18:48.350Z,95124.00
2023-06-25T09:19:48.409Z,95126.00
2023-06-25T09:20:50.300Z,95122.00
2023-06-25T09:21:48.379Z,95124.00
2023-06-25T09:22:48.367Z,95122.00
2023-06-25T09:23:48.334Z,95120.00
2023-06-25T09:24:48.318Z,95116.00
2023-06-25T09:25:48.341Z,95113.00
2023-06-25T09:26:48.286Z,95109.00
2023-06-25T09:27:48.298Z,95107.00
2023-06-25T09:28:48.297Z,95105.00
2023-06-25T09:29:48.370Z,95103.00
2023-06-25T09:30:48.313Z,95103.00
2023-06-25T09:31:48.276Z,95101.00
2023-06-25T09:32:48.456Z,95103.00
2023-06-25T09:33:48.291Z,95101.00
2023-06-25T09:34:48.256Z,95103.00
2023-06-25T09:35:48.218Z,95097.00
2023-06-25T09:36:48.258Z,95101.00
2023-06-25T09:37:48.278Z,95099.00
2023-06-25T09:38:48.273Z,95097.00
2023-06-25T09:39:48.231Z,95097.00
2023-06-25T09:40:48.227Z,95097.00
2023-06-25T09:41:48.266Z,95093.00
2023-06-25T09:42:48.199Z,95093.00
2023-06-25T09:43:48.211Z,95095.00
2023-06-25T09:44:49.989Z,95093.00
2023-06-25T09:45:48.226Z,95091.00
2023-06-25T09:46:48.262Z,95089.00
2023-06-25T09:47:48.209Z,95095.00
2023-06-25T09:48:48.202Z,95095.00
2023-06-25T09:49:48.227Z,95093.00
2023-06-25T09:50:49.878Z,95091.00
2023-06-25T09:51:48.152Z,95089.00
2023-06-25T09:52:48.154Z,95087.00
2023-06-25T09:53:48.166Z,95089.00
2023-06-25T09:54:48.171Z,95087.00
2023-06-25T09:55:48.175Z,95085.00
2023-06-25T09:56:48.132Z,95083.00
2023-06-25T09:57:48.188Z,95081.00
2023-06-25T09:58:48.207Z,95081.00
2023-06-25T09:59:48.169Z,95077.00
2023-06-25T10:00:48.182Z,95077.00
2023-06-25T10:01:48.174Z,95077.00
2023-06-25T10:02:48.425Z,95075.00
2023-06-25T10:03:48.191Z,95075.00
2023-06-25T10:04:48.250Z,95071.00
2023-06-25T10:05:48.203Z,95071.00
2023-06-25T10:06:48.212Z,95069.00
2023-06-25T10:07:48.140Z,95068.00
2023-06-25T10:08:48.171Z,95066.00
2023-06-25T10:09:48.195Z,95066.00
2023-06-25T10:10:48.171Z,95062.00
2023-06-25T10:11:48.138Z,95062.00
2023-06-25T10:12:48.137Z,95062.00
2023-06-25T10:13:48.197Z,95060.00
2023-06-25T10:14:48.166Z,95058.00
2023-06-25T10:15:48.188Z,95060.00
2023-06-25T10:16:48.160Z,95060.00
2023-06-25T10:17:48.220Z,95060.00
2023-06-25T10:18:48.217Z,95060.00
2023-06-25T10:19:48.128Z,95058.00
2023-06-25T10:20:48.172Z,95058.00
2023-06-25T10:21:48.167Z,95052.00
2023-06-25T10:22:48.177Z,95050.00
2023-06-25T10:23:48.120Z,95050.00
2023-06-25T10:24:48.140Z,95046.00
2023-06-25T10:25:48.247Z,95046.00
2023-06-25T10:26:48.143Z,95044.00
2023-06-25T10:27:48.208Z,95042.00
2023-06-25T10:28:48.163Z,95040.00
2023-06-25T10:29:48.144Z,95040.00
2023-06-25T10:30:48.238Z,95038.00
2023-06-25T10:31:48.202Z,95036.00
2023-06-25T10:32:48.145Z,95034.00
2023-06-25T10:33:48.097Z,95034.00
2023-06-25T10:34:48.150Z,95034.00
2023-06-25T10:35:48.129Z,95032.00
2023-06-25T10:36:48.109Z,95032.00
2023-06-25T10:37:48.114Z,95030.00
2023-06-25T10:38:48.121Z,95032.00
2023-06-25T10:39:48.096Z,95028.00
2023-06-25T10:40:48.106Z,95028.00
2023-06-25T10:41:48.108Z,95028.00
2023-06-25T10:42:48.084Z,95026.00
2023-06-25T10:43:48.102Z,95026.00
2023-06-25T10:44:48.187Z,95026.00
2023-06-25T10:45:48.120Z,95026.00
2023-06-25T10:46:48.110Z,95024.00
2023-06-25T10:47:48.096Z,95024.00
2023-06-25T10:48:48.101Z,95022.00
2023-06-25T10:49:48.100Z,95024.00
2023-06-25T10:50:48.093Z,95022.00
2023-06-25T10:51:48.102Z,95021.00
2023-06-25T10:52:48.087Z,95022.00
2023-06-25T10:53:48.079Z,95019.00
2023-06-25T10:54:48.094Z,95017.00
2023-06-25T10:55:48.107Z,95015.00
2023-06-25T10:56:49.497Z,95009.00
2023-06-25T10:57:48.069Z,95011.00
2023-06-25T10:58:48.082Z,95011.00
2023-06-25T10:59:48.082Z,95009.00
2023-06-25T11:00:48.085Z,95007.00
2023-06-25T11:01:48.090Z,95005.00
2023-06-25T11:02:48.141Z,95005.00
2023-06-25T11:03:48.171Z,95003.00
2023-06-25T11:04:48.101Z,95001.00
2023-06-25T11:05:48.100Z,94997.00
2023-06-25T11:06:48.101Z,94999.00
2023-06-25T11:07:48.073Z,94995.00
2023-06-25T11:08:48.061Z,94995.00
2023-06-25T11:09:48.050Z,94997.00
2023-06-25T11:10:48.124Z,94993.00
2023-06-25T11:11:48.085Z,94993.00
2023-06-25T11:12:48.075Z,94993.00
2023-06-25T11:13:48.109Z,94991.00
2023-06-25T11:14:48.072Z,94991.00
2023-06-25T11:15:48.086Z,94987.00
2023-06-25T11:16:48.110Z,94987.00
2023-06-25T11:17:48.164Z,94987.00
2023-06-25T11:18:48.128Z,94981.00
2023-06-25T11:19:48.109Z,94983.00
2023-06-25T11:21:30.581Z,94979.00
2023-06-25T11:22:30.555Z,94977.00
2023-06-25T11:23:30.547Z,94977.00
2023-06-25T11:24:30.568Z,94975.00
2023-06-25T11:25:30.589Z,94973.00
2023-06-25T11:26:30.533Z,94969.00
2023-06-25T11:27:30.653Z,94967.00
2023-06-25T11:28:30.615Z,94967.00
2023-06-25T11:29:30.505Z,94969.00
2023-06-25T11:30:30.723Z,94967.00
2023-06-25T11:31:30.538Z,94967.00
2023-06-25T11:32:32.772Z,94966.00
2023-06-25T11:33:30.795Z,94964.00
2023-06-25T11:34:30.784Z,94962.00
2023-06-25T11:35:30.860Z,94962.00
2023-06-25T11:36:30.915Z,94966.00
2023-06-25T11:37:30.960Z,94966.00
2023-06-25T11:38:31.111Z,94964.00
2023-06-25T11:39:31.029Z,94962.00
2023-06-25T11:40:31.105Z,94960.00
2023-06-25T11:41:31.135Z,94960.00
2023-06-25T11:42:31.186Z,94956.00
2023-06-25T11:43:31.251Z,94956.00
2023-06-25T11:44:31.315Z,94956.00
2023-06-25T11:45:31.374Z,94952.00